createdAt,value
2023-02-28T00:01:29.141Z,100.00
2023-02-28T00:03:56.409Z,100.00
2023-02-28T00:06:24.683Z,100.00
2023-02-28T00:08:51.589Z,100.00
2023-02-28T00:11:18.458Z,100.00
2023-02-28T00:13:47.349Z,100.00
2023-02-28T00:16:18.447Z,100.00
2023-02-28T00:18:47.678Z,100.00
2023-02-28T00:21:14.985Z,100.00
2023-02-28T00:23:41.839Z,100.00
2023-02-28T00:26:08.714Z,100.00
2023-02-28T00:28:35.623Z,100.00
2023-02-28T00:31:04.289Z,100.00
2023-02-28T00:33:31.190Z,100.00
2023-02-28T00:36:06.725Z,100.00
2023-02-28T00:38:37.003Z,100.00
2023-02-28T00:41:06.769Z,100.00
2023-02-28T00:43:35.574Z,100.00
2023-02-28T00:46:03.450Z,100.00
2023-02-28T00:48:30.995Z,100.00
2023-02-28T00:50:57.749Z,100.00
2023-02-28T00:53:25.619Z,100.00
2023-02-28T00:55:52.364Z,100.00
2023-02-28T00:58:19.376Z,100.00
2023-02-28T01:00:49.560Z,100.00
2023-02-28T01:03:20.850Z,100.00
2023-02-28T01:05:47.588Z,100.00
2023-02-28T01:08:14.911Z,100.00
2023-02-28T01:10:42.608Z,100.00
2023-02-28T01:13:09.260Z,100.00
2023-02-28T01:15:46.055Z,100.00
2023-02-28T01:18:12.765Z,100.00
2023-02-28T01:20:39.853Z,100.00
2023-02-28T01:23:06.497Z,100.00
2023-02-28T01:25:35.786Z,100.00
2023-02-28T01:28:06.427Z,100.00
2023-02-28T01:30:33.433Z,100.00
2023-02-28T01:33:00.603Z,100.00
2023-02-28T01:35:27.478Z,100.00
2023-02-28T01:37:55.158Z,100.00
2023-02-28T01:40:22.780Z,100.00
2023-02-28T01:42:49.483Z,100.00
2023-02-28T01:45:32.163Z,100.00
2023-02-28T01:48:09.364Z,100.00
2023-02-28T01:50:40.218Z,100.00
2023-02-28T01:53:16.360Z,100.00
2023-02-28T01:55:47.111Z,100.00
2023-02-28T01:58:14.393Z,100.00
2023-02-28T02:00:42.958Z,100.00
2023-02-28T02:03:16.946Z,100.00
2023-02-28T02:05:47.920Z,100.00
2023-02-28T02:08:17.594Z,100.00
2023-02-28T02:10:51.641Z,100.00
2023-02-28T02:13:37.277Z,100.00
2023-02-28T02:16:15.264Z,100.00
2023-02-28T02:19:07.744Z,100.00
2023-02-28T02:22:11.537Z,100.00
2023-02-28T02:24:56.411Z,100.00
2023-02-28T02:27:44.709Z,100.00
2023-02-28T02:30:36.169Z,100.00
2023-02-28T02:33:20.753Z,100.00
2023-02-28T02:36:23.816Z,100.00
2023-02-28T02:39:19.404Z,100.00
2023-02-28T02:41:51.703Z,100.00
2023-02-28T02:44:34.900Z,100.00
2023-02-28T02:47:10.718Z,100.00
2023-02-28T02:49:42.399Z,100.00
2023-02-28T02:52:13.660Z,100.00
2023-02-28T02:54:47.483Z,100.00
2023-02-28T02:57:28.016Z,100.00
2023-02-28T02:59:56.851Z,100.00
2023-02-28T03:02:25.532Z,100.00
2023-02-28T03:05:00.428Z,100.00
2023-02-28T03:07:28.033Z,100.00
2023-02-28T03:09:56.780Z,100.00
2023-02-28T03:12:47.067Z,100.00
2023-02-28T03:15:26.898Z,100.00
2023-02-28T03:18:12.230Z,100.00
2023-02-28T03:20:54.108Z,100.00
2023-02-28T03:23:28.660Z,100.00
2023-02-28T03:25:58.523Z,100.00
2023-02-28T03:28:32.370Z,100.00
2023-02-28T03:31:23.625Z,100.00
2023-02-28T03:34:11.112Z,100.00
2023-02-28T03:36:45.835Z,100.00
2023-02-28T03:39:19.587Z,100.00
2023-02-28T03:41:53.180Z,100.00
2023-02-28T03:44:28.457Z,100.00
2023-02-28T03:47:10.179Z,100.00
2023-02-28T03:49:52.970Z,100.00
2023-02-28T03:52:23.924Z,100.00
2023-02-28T03:54:54.845Z,100.00
2023-02-28T03:57:34.226Z,100.00
2023-02-28T04:00:07.611Z,100.00
2023-02-28T04:02:39.962Z,100.00
2023-02-28T04:05:07.573Z,100.00
2023-02-28T04:07:37.608Z,100.00
2023-02-28T04:10:05.222Z,100.00
2023-02-28T04:12:31.953Z,100.00
2023-02-28T04:15:00.271Z,100.00
2023-02-28T04:17:27.739Z,100.00
2023-02-28T04:19:57.070Z,100.00
2023-02-28T04:22:26.577Z,100.00
2023-02-28T04:24:54.902Z,100.00
2023-02-28T04:27:22.431Z,100.00
2023-02-28T04:29:49.193Z,100.00
2023-02-28T04:32:16.198Z,100.00
2023-02-28T04:34:42.907Z,100.00
2023-02-28T04:37:13.670Z,100.00
2023-02-28T04:39:43.132Z,100.00
2023-02-28T04:42:10.672Z,100.00
2023-02-28T04:44:37.412Z,100.00
2023-02-28T04:47:04.329Z,100.00
2023-02-28T04:49:31.015Z,100.00
2023-02-28T04:51:57.788Z,100.00
2023-02-28T04:54:24.835Z,100.00
2023-02-28T04:56:51.503Z,100.00
2023-02-28T04:59:18.161Z,100.00
2023-02-28T05:01:52.024Z,100.00
2023-02-28T05:04:18.686Z,100.00
2023-02-28T05:06:45.537Z,100.00
2023-02-28T05:09:19.664Z,100.00
2023-02-28T05:11:46.559Z,100.00
2023-02-28T05:14:14.756Z,100.00
2023-02-28T05:16:42.026Z,100.00
2023-02-28T05:19:08.839Z,100.00
2023-02-28T05:21:39.317Z,100.00
2023-02-28T05:24:09.758Z,100.00
2023-02-28T05:26:38.580Z,100.00
2023-02-28T05:29:05.739Z,100.00
2023-02-28T05:31:33.792Z,100.00
2023-02-28T05:34:01.201Z,100.00
2023-02-28T05:36:28.062Z,100.00
2023-02-28T05:38:54.930Z,100.00
2023-02-28T05:41:21.836Z,100.00
2023-02-28T05:43:49.335Z,100.00
2023-02-28T05:46:16.141Z,100.00
2023-02-28T05:48:46.394Z,100.00
2023-02-28T05:51:13.056Z,100.00
2023-02-28T05:53:39.664Z,100.00
2023-02-28T05:56:06.532Z,100.00
2023-02-28T05:58:34.019Z,100.00
2023-02-28T06:01:19.216Z,100.00
2023-02-28T06:03:46.022Z,100.00
2023-02-28T06:06:12.689Z,100.00
2023-02-28T06:08:39.474Z,100.00
2023-02-28T06:11:07.228Z,100.00
2023-02-28T06:13:33.841Z,100.00
2023-02-28T06:16:03.933Z,100.00
2023-02-28T06:18:33.544Z,100.00
2023-02-28T06:21:00.163Z,100.00
2023-02-28T06:23:29.884Z,100.00
2023-02-28T06:26:00.774Z,100.00
2023-02-28T06:28:29.797Z,100.00
2023-02-28T06:30:56.789Z,100.00
2023-02-28T06:33:23.604Z,100.00
2023-02-28T06:35:51.675Z,100.00
2023-02-28T06:38:18.610Z,100.00
2023-02-28T06:40:58.994Z,100.00
2023-02-28T06:43:29.706Z,100.00
2023-02-28T06:45:57.222Z,100.00
2023-02-28T06:48:24.564Z,100.00
2023-02-28T06:50:51.380Z,100.00
2023-02-28T06:53:18.102Z,100.00
2023-02-28T06:55:44.851Z,100.00
2023-02-28T06:58:20.909Z,100.00
2023-02-28T07:00:51.849Z,100.00
2023-02-28T07:03:18.977Z,100.00
2023-02-28T07:05:45.907Z,100.00
2023-02-28T07:08:12.691Z,100.00
2023-02-28T07:10:46.246Z,100.00
2023-02-28T07:13:15.202Z,100.00
2023-02-28T07:15:44.040Z,100.00
2023-02-28T07:18:10.893Z,100.00
2023-02-28T07:20:37.525Z,100.00
2023-02-28T07:23:04.280Z,100.00
2023-02-28T07:25:31.093Z,100.00
2023-02-28T07:27:59.391Z,100.00
2023-02-28T07:30:26.037Z,100.00
2023-02-28T07:32:55.125Z,100.00
2023-02-28T07:35:22.322Z,100.00
2023-02-28T07:37:48.956Z,100.00
2023-02-28T07:40:15.751Z,100.00
2023-02-28T07:42:43.078Z,100.00
2023-02-28T07:45:12.033Z,100.00
2023-02-28T07:47:44.587Z,100.00
2023-02-28T07:50:13.446Z,100.00
2023-02-28T07:52:41.187Z,100.00
2023-02-28T07:55:10.029Z,100.00
2023-02-28T07:57:37.097Z,100.00
2023-02-28T08:00:06.740Z,100.00
2023-02-28T08:02:38.655Z,100.00
2023-02-28T08:05:10.045Z,100.00
2023-02-28T08:07:40.723Z,100.00
2023-02-28T08:10:09.354Z,100.00
2023-02-28T08:12:39.356Z,100.00
2023-02-28T08:15:21.175Z,100.00
2023-02-28T08:18:05.484Z,100.00
2023-02-28T08:20:32.427Z,100.00
2023-02-28T08:22:59.181Z,100.00
2023-02-28T08:25:26.004Z,100.00
2023-02-28T08:27:56.119Z,100.00
2023-02-28T08:30:22.991Z,100.00
2023-02-28T08:32:51.114Z,100.00
2023-02-28T08:35:17.915Z,100.00
2023-02-28T08:37:44.633Z,100.00
2023-02-28T08:40:25.666Z,100.00
2023-02-28T08:42:52.746Z,100.00
2023-02-28T08:45:21.767Z,100.00
2023-02-28T08:47:51.411Z,100.00
2023-02-28T08:50:48.467Z,100.00
2023-02-28T08:53:17.422Z,100.00
2023-02-28T08:55:44.259Z,100.00
2023-02-28T08:58:22.639Z,100.00
2023-02-28T09:01:01.084Z,100.00
2023-02-28T09:03:32.642Z,100.00
2023-02-28T09:06:32.084Z,100.00
2023-02-28T09:08:59.991Z,100.00
2023-02-28T09:11:27.290Z,100.00
2023-02-28T09:13:55.973Z,100.00
2023-02-28T09:16:23.849Z,100.00
2023-02-28T09:18:50.966Z,100.00
2023-02-28T09:21:30.707Z,100.00
2023-02-28T09:24:00.257Z,100.00
2023-02-28T09:26:34.664Z,99.88
2023-02-28T09:29:07.099Z,98.93
2023-02-28T09:32:36.551Z,99.41
2023-02-28T09:34:51.006Z,99.92
2023-02-28T09:40:29.238Z,100.00
2023-02-28T09:43:08.534Z,100.00
2023-02-28T09:47:14.629Z,100.00
2023-02-28T09:50:14.136Z,100.00
2023-02-28T09:53:53.440Z,100.00
2023-02-28T09:57:10.363Z,100.00
2023-02-28T09:59:59.439Z,99.34
2023-02-28T10:02:44.486Z,99.94
2023-02-28T10:05:43.420Z,100.00
2023-02-28T10:08:21.107Z,99.99
2023-02-28T10:10:57.930Z,99.60
2023-02-28T10:13:33.557Z,99.94
2023-02-28T10:16:07.166Z,100.00
2023-02-28T10:18:46.795Z,99.81
2023-02-28T10:21:53.385Z,99.76
2023-02-28T10:24:28.871Z,98.61
2023-02-28T10:27:12.971Z,98.70
2023-02-28T10:29:47.393Z,98.23
2023-02-28T10:32:21.045Z,98.71
2023-02-28T10:35:18.562Z,98.88
2023-02-28T10:37:49.024Z,97.88
2023-02-28T10:40:18.452Z,97.51
2023-02-28T10:43:06.282Z,97.48
2023-02-28T10:45:37.565Z,99.10
2023-02-28T10:48:05.059Z,99.01
2023-02-28T10:50:45.621Z,98.59
2023-02-28T10:53:27.738Z,98.25
2023-02-28T10:56:26.947Z,96.93
2023-02-28T10:59:08.892Z,96.23
2023-02-28T11:01:41.959Z,96.27
2023-02-28T11:04:20.081Z,95.95
2023-02-28T11:06:47.302Z,95.83
2023-02-28T11:09:40.975Z,96.49
2023-02-28T11:12:21.268Z,95.46
2023-02-28T11:14:59.090Z,93.94
2023-02-28T11:17:31.433Z,93.39
2023-02-28T11:20:07.609Z,94.05
2023-02-28T11:22:40.467Z,94.29
2023-02-28T11:25:17.555Z,94.85
2023-02-28T11:27:50.821Z,95.33
2023-02-28T11:30:39.151Z,95.11
2023-02-28T11:33:29.698Z,94.05
2023-02-28T11:36:04.423Z,94.38
2023-02-28T11:38:35.442Z,94.45
2023-02-28T11:41:28.313Z,95.36
2023-02-28T11:43:58.200Z,96.18
2023-02-28T11:46:54.979Z,95.73
2023-02-28T11:49:49.596Z,94.31
2023-02-28T11:52:29.792Z,94.60
2023-02-28T11:55:15.159Z,93.80
2023-02-28T11:57:54.840Z,93.84
2023-02-28T12:00:43.040Z,94.42
2023-02-28T12:03:18.764Z,94.32
2023-02-28T12:06:24.396Z,94.58
2023-02-28T12:09:33.069Z,94.94
2023-02-28T12:12:13.872Z,95.04
2023-02-28T12:14:49.509Z,95.12
2023-02-28T12:17:35.062Z,95.66
2023-02-28T12:20:26.892Z,95.19
2023-02-28T12:23:31.044Z,95.78
2023-02-28T12:26:10.070Z,93.53
2023-02-28T12:28:49.504Z,93.08
2023-02-28T12:31:35.561Z,93.07
2023-02-28T12:34:35.166Z,91.71
2023-02-28T12:37:10.721Z,91.65
2023-02-28T12:39:50.518Z,90.90
2023-02-28T12:42:32.304Z,90.86
2023-02-28T12:45:02.618Z,91.46
2023-02-28T12:47:29.425Z,91.61
2023-02-28T12:50:03.712Z,91.67
2023-02-28T12:52:47.274Z,91.29
2023-02-28T12:55:14.786Z,91.63
2023-02-28T12:58:11.250Z,92.45
2023-02-28T13:00:50.441Z,92.30
2023-02-28T13:03:32.705Z,92.28
2023-02-28T13:06:37.940Z,92.52
2023-02-28T13:09:17.396Z,93.18
2023-02-28T13:11:49.035Z,94.21
2023-02-28T13:14:34.705Z,94.17
2023-02-28T13:17:13.936Z,93.76
2023-02-28T13:20:00.382Z,93.65
2023-02-28T13:22:40.278Z,94.22
2023-02-28T13:25:22.305Z,94.25
2023-02-28T13:27:57.113Z,94.54
2023-02-28T13:31:00.817Z,94.62
2023-02-28T13:33:30.181Z,95.09
2023-02-28T13:36:22.214Z,95.26
2023-02-28T13:38:52.953Z,95.34
2023-02-28T13:41:31.818Z,95.95
2023-02-28T13:44:02.498Z,96.40
2023-02-28T13:46:30.422Z,96.42
2023-02-28T13:49:17.598Z,96.03
2023-02-28T13:51:53.795Z,95.85
2023-02-28T13:54:36.159Z,95.39
2023-02-28T13:57:23.133Z,94.99
2023-02-28T14:00:08.102Z,94.62
2023-02-28T14:03:12.077Z,94.35
2023-02-28T14:05:41.615Z,93.90
2023-02-28T14:08:14.079Z,94.05
2023-02-28T14:11:02.751Z,94.12
2023-02-28T14:13:45.866Z,93.66
2023-02-28T14:16:30.441Z,93.47
2023-02-28T14:19:02.617Z,93.70
2023-02-28T14:21:41.903Z,94.24
2023-02-28T14:24:32.160Z,94.56
2023-02-28T14:27:20.763Z,95.08
2023-02-28T14:30:17.626Z,94.76
2023-02-28T14:33:02.072Z,94.91
2023-02-28T14:35:55.739Z,95.45
2023-02-28T14:38:28.346Z,95.80
2023-02-28T14:40:58.883Z,95.82
2023-02-28T14:43:26.651Z,96.39
2023-02-28T14:46:00.827Z,96.52
2023-02-28T14:48:28.678Z,97.07
2023-02-28T14:51:01.198Z,96.97
2023-02-28T14:53:36.750Z,97.32
2023-02-28T14:56:04.304Z,97.61
2023-02-28T14:58:35.090Z,97.91
2023-02-28T15:01:03.302Z,97.81
2023-02-28T15:03:41.805Z,98.24
2023-02-28T15:06:18.162Z,98.38
2023-02-28T15:08:46.210Z,98.57
2023-02-28T15:11:22.575Z,98.95
2023-02-28T15:13:51.682Z,98.78
2023-02-28T15:16:26.330Z,98.78
2023-02-28T15:19:02.227Z,99.31
2023-02-28T15:21:36.397Z,98.89
2023-02-28T15:24:35.283Z,98.96
2023-02-28T15:27:07.970Z,98.97
2023-02-28T15:29:54.269Z,99.68
2023-02-28T15:32:26.568Z,100.00
2023-02-28T15:34:54.597Z,100.00
2023-02-28T15:37:31.080Z,100.00
2023-02-28T15:40:10.771Z,100.00
2023-02-28T15:42:37.403Z,100.00
2023-02-28T15:45:04.519Z,100.00
2023-02-28T15:47:32.866Z,99.90
2023-02-28T15:50:12.775Z,100.00
2023-02-28T15:52:46.521Z,100.00
2023-02-28T15:55:27.820Z,100.00
2023-02-28T15:58:00.108Z,100.00
2023-02-28T16:00:29.295Z,100.00
2023-02-28T16:02:56.096Z,100.00
2023-02-28T16:05:32.158Z,100.00
2023-02-28T16:08:20.364Z,100.00
2023-02-28T16:10:47.129Z,100.00
2023-02-28T16:13:17.164Z,100.00
2023-02-28T16:15:44.392Z,100.00
2023-02-28T16:18:12.938Z,100.00
2023-02-28T16:20:40.252Z,100.00
2023-02-28T16:23:08.529Z,100.00
2023-02-28T16:25:39.032Z,99.99
2023-02-28T16:28:24.342Z,99.98
2023-02-28T16:30:54.082Z,100.00
2023-02-28T16:33:20.969Z,100.00
2023-02-28T16:35:47.576Z,100.00
2023-02-28T16:38:14.162Z,100.00
2023-02-28T16:40:41.788Z,100.00
2023-02-28T16:43:21.440Z,100.00
2023-02-28T16:45:51.241Z,100.00
2023-02-28T16:48:17.870Z,100.00
2023-02-28T16:50:45.083Z,100.00
2023-02-28T16:53:11.774Z,100.00
2023-02-28T16:55:38.695Z,100.00
2023-02-28T16:58:05.697Z,100.00
2023-02-28T17:00:33.173Z,100.00
2023-02-28T17:03:00.550Z,100.00
2023-02-28T17:05:33.492Z,100.00
2023-02-28T17:08:00.311Z,100.00
2023-02-28T17:10:27.185Z,100.00
2023-02-28T17:12:56.416Z,100.00
2023-02-28T17:15:27.837Z,100.00
2023-02-28T17:17:56.131Z,100.00
2023-02-28T17:20:22.895Z,100.00
2023-02-28T17:22:55.281Z,100.00
2023-02-28T17:25:23.370Z,100.00
2023-02-28T17:27:53.386Z,100.00
2023-02-28T17:30:23.363Z,100.00
2023-02-28T17:32:50.367Z,100.00
2023-02-28T17:35:17.223Z,100.00
2023-02-28T17:37:44.019Z,100.00
2023-02-28T17:40:19.022Z,100.00
2023-02-28T17:42:46.309Z,100.00
2023-02-28T17:45:21.116Z,100.00
2023-02-28T17:47:50.726Z,100.00
2023-02-28T17:50:22.823Z,100.00
2023-02-28T17:52:51.410Z,100.00
2023-02-28T17:55:25.693Z,100.00
2023-02-28T17:57:52.387Z,100.00
2023-02-28T18:00:19.595Z,100.00
2023-02-28T18:02:46.402Z,100.00
2023-02-28T18:05:13.175Z,100.00
2023-02-28T18:07:40.308Z,100.00
2023-02-28T18:10:19.551Z,100.00
2023-02-28T18:12:51.758Z,100.00
2023-02-28T18:15:20.404Z,100.00
2023-02-28T18:17:52.301Z,100.00
2023-02-28T18:20:21.286Z,100.00
2023-02-28T18:22:55.438Z,100.00
2023-02-28T18:25:31.676Z,100.00
2023-02-28T18:28:05.048Z,100.00
2023-02-28T18:30:36.774Z,100.00
2023-02-28T18:33:04.525Z,100.00
2023-02-28T18:35:34.666Z,100.00
2023-02-28T18:38:08.380Z,100.00
2023-02-28T18:40:36.509Z,100.00
2023-02-28T18:43:09.167Z,100.00
2023-02-28T18:45:40.237Z,100.00
2023-02-28T18:48:07.083Z,100.00
2023-02-28T18:50:36.424Z,100.00
2023-02-28T18:53:03.093Z,100.00
2023-02-28T18:55:33.608Z,100.00
2023-02-28T18:58:04.549Z,100.00
2023-02-28T19:00:31.677Z,100.00
2023-02-28T19:02:58.429Z,100.00
2023-02-28T19:05:32.418Z,100.00
2023-02-28T19:08:04.264Z,100.00
2023-02-28T19:10:31.101Z,100.00
2023-02-28T19:13:00.592Z,100.00
2023-02-28T19:15:27.530Z,100.00
2023-02-28T19:17:54.217Z,100.00
2023-02-28T19:20:20.933Z,100.00
2023-02-28T19:22:47.514Z,100.00
2023-02-28T19:25:14.190Z,100.00
2023-02-28T19:27:43.012Z,100.00
2023-02-28T19:30:10.649Z,100.00
2023-02-28T19:32:37.489Z,100.00
2023-02-28T19:35:04.655Z,100.00
2023-02-28T19:37:31.356Z,100.00
2023-02-28T19:39:58.086Z,100.00
2023-02-28T19:42:28.070Z,100.00
2023-02-28T19:44:54.800Z,100.00
2023-02-28T19:47:21.574Z,100.00
2023-02-28T19:49:48.367Z,100.00
2023-02-28T19:52:15.697Z,100.00
2023-02-28T19:54:42.649Z,100.00
2023-02-28T19:57:09.423Z,100.00
2023-02-28T19:59:39.801Z,100.00
2023-02-28T20:02:15.509Z,100.00
2023-02-28T20:04:45.711Z,100.00
2023-02-28T20:07:12.336Z,100.00
2023-02-28T20:09:39.465Z,100.00
2023-02-28T20:12:09.233Z,100.00
2023-02-28T20:14:41.726Z,100.00
2023-02-28T20:17:08.999Z,100.00
2023-02-28T20:19:35.669Z,100.00
2023-02-28T20:22:02.381Z,100.00
2023-02-28T20:24:29.524Z,100.00
2023-02-28T20:26:57.031Z,100.00
2023-02-28T20:29:23.782Z,100.00
2023-02-28T20:31:50.435Z,100.00
2023-02-28T20:34:17.440Z,100.00
2023-02-28T20:36:44.196Z,100.00
2023-02-28T20:39:11.221Z,100.00
2023-02-28T20:41:37.999Z,100.00
2023-02-28T20:44:04.827Z,100.00
2023-02-28T20:46:33.985Z,100.00
2023-02-28T20:49:00.721Z,100.00
2023-02-28T20:51:27.515Z,100.00
2023-02-28T20:53:54.273Z,100.00
2023-02-28T20:56:23.172Z,100.00
2023-02-28T20:58:52.364Z,100.00
2023-02-28T21:01:25.303Z,100.00
2023-02-28T21:03:58.659Z,100.00
2023-02-28T21:06:29.099Z,100.00
2023-02-28T21:08:56.348Z,100.00
2023-02-28T21:11:24.882Z,100.00
2023-02-28T21:13:53.598Z,100.00
2023-02-28T21:16:22.978Z,100.00
2023-02-28T21:18:49.950Z,100.00
2023-02-28T21:21:20.017Z,100.00
2023-02-28T21:23:47.656Z,100.00
2023-02-28T21:26:18.071Z,100.00
2023-02-28T21:28:52.548Z,100.00
2023-02-28T21:31:22.412Z,100.00
2023-02-28T21:33:51.398Z,100.00
2023-02-28T21:36:20.880Z,100.00
2023-02-28T21:38:50.504Z,100.00
2023-02-28T21:41:20.819Z,100.00
2023-02-28T21:43:48.386Z,100.00
2023-02-28T21:46:21.794Z,100.00
2023-02-28T21:48:48.816Z,100.00
2023-02-28T21:51:19.339Z,100.00
2023-02-28T21:53:50.117Z,100.00
2023-02-28T21:56:24.236Z,100.00
2023-02-28T21:59:01.038Z,100.00
2023-02-28T22:01:29.789Z,100.00
2023-02-28T22:03:58.361Z,100.00
2023-02-28T22:06:28.858Z,100.00
2023-02-28T22:08:57.374Z,100.00
2023-02-28T22:11:25.488Z,100.00
2023-02-28T22:13:55.208Z,100.00
2023-02-28T22:16:24.033Z,100.00
2023-02-28T22:18:50.763Z,100.00
2023-02-28T22:21:18.798Z,100.00
2023-02-28T22:23:46.097Z,100.00
2023-02-28T22:26:15.867Z,100.00
2023-02-28T22:28:42.462Z,100.00
2023-02-28T22:31:19.454Z,100.00
2023-02-28T22:33:48.718Z,100.00
2023-02-28T22:36:17.460Z,100.00
2023-02-28T22:38:47.315Z,100.00
2023-02-28T22:41:14.458Z,100.00
2023-02-28T22:43:43.278Z,100.00
2023-02-28T22:46:12.392Z,100.00
2023-02-28T22:48:39.446Z,100.00
2023-02-28T22:51:12.597Z,100.00
2023-02-28T22:53:41.054Z,100.00
2023-02-28T22:56:10.254Z,100.00
2023-02-28T22:58:39.657Z,100.00
2023-02-28T23:01:12.707Z,100.00
2023-02-28T23:03:40.885Z,100.00
2023-02-28T23:06:13.503Z,100.00
2023-02-28T23:08:41.777Z,100.00
2023-02-28T23:11:08.900Z,100.00
2023-02-28T23:13:35.945Z,100.00
2023-02-28T23:16:07.166Z,100.00
2023-02-28T23:18:34.334Z,100.00
2023-02-28T23:21:00.976Z,100.00
2023-02-28T23:23:27.601Z,100.00
2023-02-28T23:25:54.530Z,100.00
2023-02-28T23:28:22.411Z,100.00
2023-02-28T23:30:49.248Z,100.00
2023-02-28T23:33:16.315Z,100.00
2023-02-28T23:35:42.854Z,100.00
2023-02-28T23:38:09.396Z,100.00
2023-02-28T23:40:36.045Z,100.00
2023-02-28T23:43:02.653Z,100.00
2023-02-28T23:45:29.260Z,100.00
2023-02-28T23:47:55.903Z,100.00
2023-02-28T23:50:22.575Z,100.00
2023-02-28T23:52:49.199Z,100.00
2023-02-28T23:55:15.856Z,100.00
2023-02-28T23:57:42.555Z,100.00
